createdAt,value
2022-12-15T00:01:26.250Z,32.88
2022-12-15T00:04:51.845Z,52.20
2022-12-15T00:11:53.556Z,27.40
2022-12-15T00:15:17.892Z,65.45
2022-12-15T00:18:40.430Z,61.17
2022-12-15T00:25:58.165Z,39.90
2022-12-15T00:33:00.072Z,28.50
2022-12-15T00:36:30.753Z,58.42
2022-12-15T00:39:38.766Z,32.35
2022-12-15T00:46:12.840Z,38.40
2022-12-15T00:49:34.606Z,43.88
2022-12-15T00:56:31.637Z,29.75
2022-12-15T01:03:38.482Z,69.32
2022-12-15T01:07:03.134Z,32.65
2022-12-15T01:21:01.383Z,69.50
2022-12-15T01:33:59.147Z,159.38
2022-12-15T01:37:06.231Z,159.95
2022-12-15T01:43:53.074Z,104.07
2022-12-15T01:47:02.450Z,134.50
2022-12-15T01:50:21.800Z,111.55
2022-12-15T01:53:40.651Z,116.70
2022-12-15T01:57:03.422Z,69.15
2022-12-15T02:00:09.006Z,54.95
2022-12-15T02:03:14.852Z,26.73
2022-12-15T02:06:23.481Z,91.70
2022-12-15T02:09:30.379Z,163.52
2022-12-15T02:13:32.225Z,48.03
2022-12-15T02:17:18.141Z,198.10
2022-12-15T02:24:19.694Z,49.05
2022-12-15T02:27:51.777Z,72.85
2022-12-15T02:41:44.129Z,56.08
2022-12-15T02:55:55.030Z,42.25
2022-12-15T02:59:25.463Z,63.55
2022-12-15T03:02:34.049Z,39.50
2022-12-15T03:05:38.255Z,82.35
2022-12-15T03:12:02.259Z,90.15
2022-12-15T03:15:07.056Z,55.35
2022-12-15T03:18:22.791Z,169.25
2022-12-15T03:21:31.506Z,110.78
2022-12-15T03:35:04.270Z,26.30
2022-12-15T03:56:00.117Z,63.50
2022-12-15T03:59:15.598Z,99.72
2022-12-15T04:13:04.485Z,111.30
2022-12-15T04:19:55.150Z,136.13
2022-12-15T04:30:51.283Z,136.27
2022-12-15T04:42:05.896Z,59.72
2022-12-15T05:03:51.217Z,105.32
2022-12-15T05:07:19.718Z,94.70
2022-12-15T05:10:52.999Z,212.95
2022-12-15T05:29:19.328Z,128.80
2022-12-15T05:35:37.403Z,127.95
2022-12-15T05:39:18.086Z,102.57
2022-12-15T05:45:55.477Z,143.00
2022-12-15T05:49:20.613Z,192.63
2022-12-15T06:10:10.447Z,156.02
2022-12-15T06:49:24.884Z,235.10
2022-12-15T06:55:52.537Z,185.02
2022-12-15T07:06:43.238Z,81.00
2022-12-15T07:14:29.618Z,77.45
2022-12-15T07:21:25.386Z,56.53
2022-12-15T07:24:38.870Z,85.13
2022-12-15T07:27:44.995Z,63.80
2022-12-15T07:51:19.785Z,68.05
2022-12-15T07:55:01.785Z,70.07
2022-12-15T08:01:40.495Z,116.68
2022-12-15T08:04:52.088Z,37.95
2022-12-15T08:18:18.652Z,61.05
2022-12-15T08:25:09.020Z,61.17
2022-12-15T08:50:14.118Z,44.10
2022-12-15T08:57:04.621Z,53.40
2022-12-15T09:07:38.561Z,59.08
2022-12-15T09:27:58.551Z,73.90
2022-12-15T09:31:23.384Z,77.10
2022-12-15T09:34:28.975Z,77.13
2022-12-15T09:37:34.319Z,46.40
2022-12-15T10:00:52.522Z,54.72
2022-12-15T10:05:05.013Z,36.50
2022-12-15T10:12:35.052Z,43.00
2022-12-15T10:20:04.806Z,58.45
2022-12-15T10:23:18.238Z,36.55
2022-12-15T10:26:28.139Z,45.17
2022-12-15T10:29:52.060Z,46.42
2022-12-15T10:33:24.813Z,36.28
2022-12-15T10:36:36.591Z,40.97
2022-12-15T10:43:26.673Z,30.98
2022-12-15T10:46:35.717Z,80.43
2022-12-15T10:53:54.303Z,33.88
2022-12-15T10:57:07.220Z,32.75
2022-12-15T11:00:30.486Z,67.00
2022-12-15T11:03:40.798Z,22.42
2022-12-15T11:07:00.189Z,57.83
2022-12-15T11:17:49.249Z,58.03
2022-12-15T11:25:32.369Z,30.70
2022-12-15T11:32:41.787Z,55.13
2022-12-15T11:36:47.272Z,35.42
2022-12-15T11:43:33.703Z,59.95
2022-12-15T12:05:09.312Z,43.60
2022-12-15T12:08:19.446Z,54.08
2022-12-15T12:11:39.950Z,50.67
2022-12-15T12:15:18.806Z,60.47
2022-12-15T12:18:29.351Z,56.78
2022-12-15T12:25:28.218Z,52.72
2022-12-15T12:29:27.818Z,53.28
2022-12-15T12:32:53.509Z,49.50
2022-12-15T12:36:14.931Z,41.65
2022-12-15T12:39:24.031Z,30.58
2022-12-15T12:42:57.669Z,40.47
2022-12-15T12:46:14.716Z,20.40
2022-12-15T12:53:03.427Z,32.13
2022-12-15T12:56:08.276Z,17.50
2022-12-15T12:59:30.414Z,33.65
2022-12-15T13:02:40.525Z,38.45
2022-12-15T13:05:46.697Z,14.95
2022-12-15T13:08:56.961Z,14.05
2022-12-15T13:12:20.642Z,14.35
2022-12-15T13:19:11.501Z,22.48
2022-12-15T13:25:50.353Z,8.02
2022-12-15T13:28:59.077Z,17.73
2022-12-15T13:32:02.972Z,15.38
2022-12-15T13:35:23.519Z,12.68
2022-12-15T13:38:54.456Z,10.38
2022-12-15T13:42:32.764Z,20.40
2022-12-15T13:45:45.301Z,6.15
2022-12-15T13:52:59.034Z,5.30
2022-12-15T13:56:02.686Z,7.40
2022-12-15T13:59:40.229Z,3.63
2022-12-15T14:02:57.587Z,10.32
2022-12-15T14:06:03.858Z,4.50
2022-12-15T14:09:22.061Z,4.80
2022-12-15T14:12:28.137Z,5.55
2022-12-15T14:15:33.561Z,3.63
2022-12-15T14:18:41.155Z,3.65
2022-12-15T14:22:00.024Z,10.65
2022-12-15T14:25:34.485Z,8.57
2022-12-15T14:28:44.195Z,17.30
2022-12-15T14:31:57.147Z,12.18
2022-12-15T14:35:00.999Z,13.20
2022-12-15T14:38:08.957Z,4.93
2022-12-15T14:44:46.404Z,7.00
2022-12-15T14:48:39.003Z,10.02
2022-12-15T14:54:35.014Z,0.80
2022-12-15T15:01:07.743Z,8.25
2022-12-15T15:04:27.676Z,4.75
2022-12-15T15:07:34.095Z,4.80
2022-12-15T15:14:11.758Z,3.53
2022-12-15T15:17:17.359Z,5.18
2022-12-15T15:20:32.668Z,17.35
2022-12-15T15:23:49.025Z,12.55
2022-12-15T15:26:53.485Z,10.77
2022-12-15T15:30:17.057Z,12.27
2022-12-15T15:33:29.547Z,20.35
2022-12-15T15:36:40.594Z,7.10
2022-12-15T15:39:44.126Z,11.13
2022-12-15T15:42:49.924Z,5.20
2022-12-15T15:46:04.424Z,3.45
2022-12-15T15:49:10.256Z,9.20
2022-12-15T15:52:17.056Z,18.25
2022-12-15T15:55:36.320Z,11.77
2022-12-15T16:02:03.523Z,19.13
2022-12-15T16:05:07.910Z,3.83
2022-12-15T16:08:18.665Z,5.55
2022-12-15T16:11:30.343Z,31.13
2022-12-15T16:14:35.418Z,7.32
2022-12-15T16:17:46.985Z,6.35
2022-12-15T16:20:53.508Z,12.45
2022-12-15T16:23:59.461Z,10.48
2022-12-15T16:27:04.420Z,5.53
2022-12-15T16:30:29.104Z,6.03
2022-12-15T16:33:38.369Z,5.72
2022-12-15T16:36:43.091Z,12.20
2022-12-15T16:39:50.003Z,9.45
2022-12-15T16:42:58.345Z,8.35
2022-12-15T16:46:03.939Z,16.77
2022-12-15T16:49:07.963Z,13.07
2022-12-15T16:52:23.079Z,13.30
2022-12-15T16:55:33.848Z,19.50
2022-12-15T16:58:40.399Z,29.75
2022-12-15T17:01:45.167Z,25.05
2022-12-15T17:04:51.540Z,35.35
2022-12-15T17:07:59.353Z,16.00
2022-12-15T17:14:14.119Z,11.48
2022-12-15T17:17:20.578Z,10.48
2022-12-15T17:20:29.654Z,12.32
2022-12-15T17:23:36.108Z,14.50
2022-12-15T17:26:42.664Z,6.97
2022-12-15T17:29:46.511Z,11.18
2022-12-15T17:32:50.776Z,1.42
2022-12-15T17:35:57.014Z,6.97
2022-12-15T17:42:21.871Z,5.68
2022-12-15T17:45:26.186Z,7.45
2022-12-15T17:48:30.528Z,2.35
2022-12-15T17:51:38.704Z,2.70
2022-12-15T17:57:49.156Z,2.92
2022-12-15T18:00:55.106Z,2.20
2022-12-15T18:04:00.602Z,3.65
2022-12-15T18:07:03.931Z,1.58
2022-12-15T18:10:12.379Z,1.00
2022-12-15T18:13:18.749Z,8.50
2022-12-15T18:16:25.844Z,1.13
2022-12-15T18:19:34.776Z,5.85
2022-12-15T18:22:39.013Z,5.57
2022-12-15T18:25:44.718Z,2.95
2022-12-15T18:32:05.946Z,1.83
2022-12-15T18:35:39.947Z,4.07
2022-12-15T18:38:47.810Z,5.15
2022-12-15T18:41:52.736Z,1.23
2022-12-15T18:44:58.147Z,2.92
2022-12-15T18:48:06.031Z,2.63
2022-12-15T18:51:22.468Z,4.20
2022-12-15T18:54:35.124Z,3.50
2022-12-15T18:57:42.825Z,2.60
2022-12-15T19:00:47.506Z,1.95
2022-12-15T19:03:56.052Z,1.25
2022-12-15T19:07:08.233Z,1.40
2022-12-15T19:10:15.886Z,7.82
2022-12-15T19:13:23.070Z,5.95
2022-12-15T19:16:50.210Z,7.72
2022-12-15T19:20:12.418Z,3.00
2022-12-15T19:23:17.046Z,1.92
2022-12-15T19:26:22.795Z,0.35
2022-12-15T19:29:26.967Z,3.85
2022-12-15T19:32:32.188Z,0.93
2022-12-15T19:35:38.380Z,3.20
2022-12-15T19:41:59.561Z,1.08
2022-12-15T19:45:27.946Z,5.10
2022-12-15T19:48:32.998Z,6.38
2022-12-15T19:51:38.792Z,4.03
2022-12-15T19:54:45.578Z,6.25
2022-12-15T19:57:49.439Z,12.70
2022-12-15T20:00:53.881Z,4.28
2022-12-15T20:03:58.992Z,4.00
2022-12-15T20:07:06.746Z,3.00
2022-12-15T20:10:25.896Z,8.95
2022-12-15T20:13:38.615Z,1.45
2022-12-15T20:16:43.534Z,1.25
2022-12-15T20:19:47.906Z,1.63
2022-12-15T20:26:36.421Z,1.85
2022-12-15T20:29:40.539Z,5.03
2022-12-15T20:32:45.386Z,3.17
2022-12-15T20:35:53.455Z,1.15
2022-12-15T20:39:00.673Z,0.77
2022-12-15T20:42:06.684Z,1.02
2022-12-15T20:45:13.649Z,1.95
2022-12-15T20:48:18.290Z,3.88
2022-12-15T20:51:27.702Z,0.90
2022-12-15T20:54:32.421Z,1.23
2022-12-15T20:57:37.387Z,1.25
2022-12-15T21:00:41.904Z,4.35
2022-12-15T21:03:52.223Z,8.77
2022-12-15T21:06:57.827Z,1.17
2022-12-15T21:10:02.932Z,0.50
2022-12-15T21:13:13.544Z,1.75
2022-12-15T21:16:25.283Z,6.60
2022-12-15T21:19:29.546Z,4.82
2022-12-15T21:26:40.607Z,1.20
2022-12-15T21:29:52.668Z,7.57
2022-12-15T21:32:56.813Z,3.95
2022-12-15T21:36:02.166Z,5.28
2022-12-15T21:42:26.735Z,5.57
2022-12-15T21:45:31.053Z,1.98
2022-12-15T21:48:54.313Z,3.05
2022-12-15T21:52:04.251Z,6.55
2022-12-15T21:55:20.227Z,1.73
2022-12-15T21:58:29.686Z,3.50
2022-12-15T22:01:34.209Z,2.53
2022-12-15T22:04:39.262Z,7.07
2022-12-15T22:07:44.326Z,2.78
2022-12-15T22:10:50.722Z,2.72
2022-12-15T22:13:59.292Z,1.98
2022-12-15T22:17:19.950Z,9.10
2022-12-15T22:23:44.565Z,16.70
2022-12-15T22:26:49.016Z,12.15
2022-12-15T22:29:54.284Z,9.02
2022-12-15T22:33:04.026Z,8.82
2022-12-15T22:36:13.456Z,29.02
2022-12-15T22:39:17.914Z,34.60
2022-12-15T22:42:23.931Z,52.63
2022-12-15T22:45:28.330Z,42.03
2022-12-15T22:52:02.008Z,24.58
2022-12-15T22:58:45.112Z,25.10
2022-12-15T23:01:58.934Z,15.90
2022-12-15T23:05:06.794Z,15.23
2022-12-15T23:11:42.742Z,21.15
2022-12-15T23:15:06.697Z,15.80
2022-12-15T23:18:11.327Z,33.40
2022-12-15T23:21:30.155Z,12.52
2022-12-15T23:24:39.821Z,22.60
2022-12-15T23:27:46.620Z,21.52
2022-12-15T23:34:24.115Z,13.82
2022-12-15T23:37:35.783Z,22.58
2022-12-15T23:44:11.200Z,4.28
2022-12-15T23:50:40.052Z,22.50
2022-12-15T23:57:04.701Z,15.23
